sensor_id;sensor_type;location;lat;lon;timestamp;pressure;altitude;pressure_sealevel;temperature;humidity
58295;BME280;45705;55.592;37.460;2023-09-08T00:01:35;99520.66;;;11.39;85.01
58295;BME280;45705;55.592;37.460;2023-09-08T00:04:00;99516.69;;;11.46;85.02
58295;BME280;45705;55.592;37.460;2023-09-08T00:06:26;99526.09;;;11.39;85.56
58295;BME280;45705;55.592;37.460;2023-09-08T00:08:52;99514.38;;;11.53;84.66
58295;BME280;45705;55.592;37.460;2023-09-08T00:11:17;99516.19;;;11.43;85.53
58295;BME280;45705;55.592;37.460;2023-09-08T00:13:43;99505.81;;;11.46;85.83
58295;BME280;45705;55.592;37.460;2023-09-08T00:16:09;99501.25;;;11.55;85.14
58295;BME280;45705;55.592;37.460;2023-09-08T00:18:35;99497.84;;;11.49;85.94
58295;BME280;45705;55.592;37.460;2023-09-08T00:21:01;99507.84;;;11.54;85.27
58295;BME280;45705;55.592;37.460;2023-09-08T00:23:27;99497.44;;;11.56;85.75
58295;BME280;45705;55.592;37.460;2023-09-08T00:25:54;99504.94;;;11.36;86.61
58295;BME280;45705;55.592;37.460;2023-09-08T00:28:19;99498.88;;;11.39;87.00
58295;BME280;45705;55.592;37.460;2023-09-08T00:33:40;99501.19;;;11.46;86.69
58295;BME280;45705;55.592;37.460;2023-09-08T00:36:09;99501.50;;;11.45;86.96
58295;BME280;45705;55.592;37.460;2023-09-08T00:38:35;99499.09;;;11.29;88.48
58295;BME280;45705;55.592;37.460;2023-09-08T00:41:01;99487.56;;;11.46;87.73
58295;BME280;45705;55.592;37.460;2023-09-08T00:43:28;99500.75;;;11.53;88.53
58295;BME280;45705;55.592;37.460;2023-09-08T00:45:55;99496.66;;;11.41;90.18
58295;BME280;45705;55.592;37.460;2023-09-08T00:48:24;99499.50;;;11.36;90.56
58295;BME280;45705;55.592;37.460;2023-09-08T00:50:50;99497.47;;;11.28;92.13
58295;BME280;45705;55.592;37.460;2023-09-08T00:53:17;99495.16;;;11.35;92.07
58295;BME280;45705;55.592;37.460;2023-09-08T00:55:44;99497.47;;;11.28;93.51
58295;BME280;45705;55.592;37.460;2023-09-08T00:58:11;99495.28;;;11.30;93.71
58295;BME280;45705;55.592;37.460;2023-09-08T01:00:37;99498.31;;;11.15;95.53
58295;BME280;45705;55.592;37.460;2023-09-08T01:03:03;99497.91;;;11.08;96.60
58295;BME280;45705;55.592;37.460;2023-09-08T01:05:31;99502.31;;;11.31;97.37
58295;BME280;45705;55.592;37.460;2023-09-08T01:07:59;99492.25;;;11.18;97.83
58295;BME280;45705;55.592;37.460;2023-09-08T01:10:27;99494.97;;;11.18;98.69
58295;BME280;45705;55.592;37.460;2023-09-08T01:12:53;99483.00;;;11.05;99.42
58295;BME280;45705;55.592;37.460;2023-09-08T01:15:19;99481.78;;;11.11;99.58
58295;BME280;45705;55.592;37.460;2023-09-08T01:17:45;99488.63;;;11.09;100.00
58295;BME280;45705;55.592;37.460;2023-09-08T01:20:59;99485.28;;;11.12;100.00
58295;BME280;45705;55.592;37.460;2023-09-08T01:25:24;99485.19;;;10.89;100.00
58295;BME280;45705;55.592;37.460;2023-09-08T01:27:53;99481.38;;;10.62;100.00
58295;BME280;45705;55.592;37.460;2023-09-08T01:30:21;99481.44;;;10.57;100.00
58295;BME280;45705;55.592;37.460;2023-09-08T01:32:48;99474.56;;;10.46;100.00
58295;BME280;45705;55.592;37.460;2023-09-08T01:35:15;99476.09;;;10.52;100.00
58295;BME280;45705;55.592;37.460;2023-09-08T01:37:45;99476.50;;;10.59;100.00
58295;BME280;45705;55.592;37.460;2023-09-08T01:40:11;99481.50;;;10.38;100.00
58295;BME280;45705;55.592;37.460;2023-09-08T01:42:38;99484.94;;;10.44;100.00
58295;BME280;45705;55.592;37.460;2023-09-08T01:45:05;99484.34;;;10.47;100.00
58295;BME280;45705;55.592;37.460;2023-09-08T01:47:32;99479.72;;;10.48;100.00
58295;BME280;45705;55.592;37.460;2023-09-08T01:49:59;99475.94;;;10.30;100.00
58295;BME280;45705;55.592;37.460;2023-09-08T01:52:26;99467.34;;;10.22;100.00
58295;BME280;45705;55.592;37.460;2023-09-08T01:54:51;99466.34;;;10.18;100.00
58295;BME280;45705;55.592;37.460;2023-09-08T01:57:18;99467.34;;;10.22;100.00
58295;BME280;45705;55.592;37.460;2023-09-08T01:59:45;99460.78;;;10.23;100.00
58295;BME280;45705;55.592;37.460;2023-09-08T02:02:11;99447.09;;;10.34;100.00
58295;BME280;45705;55.592;37.460;2023-09-08T02:04:37;99451.75;;;10.47;100.00
58295;BME280;45705;55.592;37.460;2023-09-08T02:07:04;99446.88;;;10.44;100.00
58295;BME280;45705;55.592;37.460;2023-09-08T02:09:34;99444.47;;;10.42;100.00
58295;BME280;45705;55.592;37.460;2023-09-08T02:12:01;99438.25;;;10.56;100.00
58295;BME280;45705;55.592;37.460;2023-09-08T02:14:28;99439.38;;;10.55;100.00
58295;BME280;45705;55.592;37.460;2023-09-08T02:16:56;99431.38;;;10.58;100.00
58295;BME280;45705;55.592;37.460;2023-09-08T02:19:23;99433.81;;;10.46;100.00
58295;BME280;45705;55.592;37.460;2023-09-08T02:21:49;99430.78;;;10.61;100.00
58295;BME280;45705;55.592;37.460;2023-09-08T02:24:15;99419.91;;;10.48;100.00
58295;BME280;45705;55.592;37.460;2023-09-08T02:26:42;99424.56;;;10.47;100.00
58295;BME280;45705;55.592;37.460;2023-09-08T02:29:08;99420.72;;;10.48;100.00
58295;BME280;45705;55.592;37.460;2023-09-08T02:31:34;99417.28;;;10.56;100.00
58295;BME280;45705;55.592;37.460;2023-09-08T02:34:03;99418.91;;;10.43;100.00
58295;BME280;45705;55.592;37.460;2023-09-08T02:36:31;99411.63;;;10.39;100.00
58295;BME280;45705;55.592;37.460;2023-09-08T02:38:57;99406.41;;;10.42;100.00
58295;BME280;45705;55.592;37.460;2023-09-08T02:41:24;99405.53;;;10.47;100.00
58295;BME280;45705;55.592;37.460;2023-09-08T02:43:50;99406.19;;;10.39;100.00
58295;BME280;45705;55.592;37.460;2023-09-08T02:46:16;99402.97;;;10.37;100.00
58295;BME280;45705;55.592;37.460;2023-09-08T02:48:43;99403.59;;;10.61;100.00
58295;BME280;45705;55.592;37.460;2023-09-08T02:51:08;99396.44;;;10.38;100.00
58295;BME280;45705;55.592;37.460;2023-09-08T02:53:34;99395.16;;;10.35;100.00
58295;BME280;45705;55.592;37.460;2023-09-08T02:56:02;99400.72;;;10.25;100.00
58295;BME280;45705;55.592;37.460;2023-09-08T02:58:31;99398.88;;;10.39;100.00
58295;BME280;45705;55.592;37.460;2023-09-08T03:03:55;99393.72;;;10.38;100.00
58295;BME280;45705;55.592;37.460;2023-09-08T03:06:21;99393.72;;;10.38;100.00
58295;BME280;45705;55.592;37.460;2023-09-08T03:08:48;99398.47;;;10.46;100.00
58295;BME280;45705;55.592;37.460;2023-09-08T03:11:14;99401.38;;;10.50;100.00
58295;BME280;45705;55.592;37.460;2023-09-08T03:13:40;99403.41;;;10.58;100.00
58295;BME280;45705;55.592;37.460;2023-09-08T03:16:07;99398.16;;;10.61;100.00
58295;BME280;45705;55.592;37.460;2023-09-08T03:18:34;99397.94;;;10.72;100.00
58295;BME280;45705;55.592;37.460;2023-09-08T03:21:06;99398.16;;;10.61;100.00
58295;BME280;45705;55.592;37.460;2023-09-08T03:26:03;99398.34;;;10.79;100.00
58295;BME280;45705;55.592;37.460;2023-09-08T03:28:29;99383.03;;;10.83;100.00
58295;BME280;45705;55.592;37.460;2023-09-08T03:30:54;99390.66;;;11.09;100.00
58295;BME280;45705;55.592;37.460;2023-09-08T03:33:20;99399.53;;;11.00;100.00
58295;BME280;45705;55.592;37.460;2023-09-08T03:35:46;99398.84;;;10.81;100.00
58295;BME280;45705;55.592;37.460;2023-09-08T03:38:12;99386.47;;;10.75;100.00
58295;BME280;45705;55.592;37.460;2023-09-08T03:40:38;99393.44;;;10.67;100.00
58295;BME280;45705;55.592;37.460;2023-09-08T03:43:04;99387.06;;;10.72;100.00
58295;BME280;45705;55.592;37.460;2023-09-08T03:45:30;99380.13;;;10.79;100.00
58295;BME280;45705;55.592;37.460;2023-09-08T03:47:55;99382.25;;;10.69;100.00
58295;BME280;45705;55.592;37.460;2023-09-08T03:50:21;99361.63;;;10.40;100.00
58295;BME280;45705;55.592;37.460;2023-09-08T03:52:47;99384.47;;;10.67;100.00
58295;BME280;45705;55.592;37.460;2023-09-08T03:55:13;99375.28;;;10.49;100.00
58295;BME280;45705;55.592;37.460;2023-09-08T03:57:39;99377.84;;;10.59;100.00
58295;BME280;45705;55.592;37.460;2023-09-08T04:00:06;99382.06;;;10.51;100.00
58295;BME280;45705;55.592;37.460;2023-09-08T04:02:40;99381.34;;;10.73;100.00
58295;BME280;45705;55.592;37.460;2023-09-08T04:05:06;99378.22;;;10.80;100.00
58295;BME280;45705;55.592;37.460;2023-09-08T04:07:32;99380.81;;;10.85;100.00
58295;BME280;45705;55.592;37.460;2023-09-08T04:09:58;99375.00;;;10.50;100.00
58295;BME280;45705;55.592;37.460;2023-09-08T04:12:24;99380.56;;;10.59;100.00
58295;BME280;45705;55.592;37.460;2023-09-08T04:14:51;99370.91;;;10.53;100.00
58295;BME280;45705;55.592;37.460;2023-09-08T04:17:16;99365.13;;;10.54;100.00
58295;BME280;45705;55.592;37.460;2023-09-08T04:19:42;99374.00;;;10.46;100.00
58295;BME280;45705;55.592;37.460;2023-09-08T04:22:08;99375.13;;;10.45;100.00
58295;BME280;45705;55.592;37.460;2023-09-08T04:24:37;99367.25;;;10.43;100.00
58295;BME280;45705;55.592;37.460;2023-09-08T04:27:03;99378.72;;;10.54;100.00
58295;BME280;45705;55.592;37.460;2023-09-08T04:29:30;99366.97;;;10.45;100.00
58295;BME280;45705;55.592;37.460;2023-09-08T04:31:56;99354.81;;;10.23;100.00
58295;BME280;45705;55.592;37.460;2023-09-08T04:34:21;99358.94;;;10.21;100.00
58295;BME280;45705;55.592;37.460;2023-09-08T04:36:47;99359.91;;;10.44;100.00
58295;BME280;45705;55.592;37.460;2023-09-08T04:39:13;99367.75;;;10.32;100.00
58295;BME280;45705;55.592;37.460;2023-09-08T04:41:40;99361.91;;;10.52;100.00
58295;BME280;45705;55.592;37.460;2023-09-08T04:44:06;99360.50;;;10.69;100.00
58295;BME280;45705;55.592;37.460;2023-09-08T04:46:35;99359.31;;;10.47;100.00
58295;BME280;45705;55.592;37.460;2023-09-08T04:49:02;99354.88;;;10.51;100.00
58295;BME280;45705;55.592;37.460;2023-09-08T04:51:28;99352.44;;;10.63;100.00
58295;BME280;45705;55.592;37.460;2023-09-08T04:53:54;99350.16;;;10.93;98.36
58295;BME280;45705;55.592;37.460;2023-09-08T04:56:19;99346.78;;;10.88;97.40
58295;BME280;45705;55.592;37.460;2023-09-08T04:58:45;99352.16;;;11.15;95.65
58295;BME280;45705;55.592;37.460;2023-09-08T05:01:13;99349.50;;;11.24;95.46
58295;BME280;45705;55.592;37.460;2023-09-08T05:03:39;99336.47;;;11.35;96.31
58295;BME280;45705;55.592;37.460;2023-09-08T05:06:06;99334.28;;;11.68;92.90
58295;BME280;45705;55.592;37.460;2023-09-08T05:08:32;99328.28;;;12.11;89.80
58295;BME280;45705;55.592;37.460;2023-09-08T05:10:58;99328.69;;;13.19;83.14
58295;BME280;45705;55.592;37.460;2023-09-08T05:13:24;99322.44;;;13.19;79.20
58295;BME280;45705;55.592;37.460;2023-09-08T05:15:52;99325.50;;;13.09;78.28
58295;BME280;45705;55.592;37.460;2023-09-08T05:18:26;99324.34;;;12.92;78.28
58295;BME280;45705;55.592;37.460;2023-09-08T05:20:54;99317.28;;;12.91;78.14
58295;BME280;45705;55.592;37.460;2023-09-08T05:23:19;99317.53;;;12.64;79.79
58295;BME280;45705;55.592;37.460;2023-09-08T05:25:45;99325.09;;;12.67;80.78
58295;BME280;45705;55.592;37.460;2023-09-08T05:28:11;99315.38;;;13.35;76.54
58295;BME280;45705;55.592;37.460;2023-09-08T05:30:37;99310.81;;;14.22;70.91
58295;BME280;45705;55.592;37.460;2023-09-08T05:33:03;99294.66;;;15.30;64.00
58295;BME280;45705;55.592;37.460;2023-09-08T05:35:30;99299.66;;;15.49;62.22
58295;BME280;45705;55.592;37.460;2023-09-08T05:37:55;99312.81;;;14.42;65.93
58295;BME280;45705;55.592;37.460;2023-09-08T05:40:21;99302.03;;;14.07;68.04
58295;BME280;45705;55.592;37.460;2023-09-08T05:42:50;99309.56;;;13.63;70.93
58295;BME280;45705;55.592;37.460;2023-09-08T05:45:16;99304.38;;;13.70;70.70
58295;BME280;45705;55.592;37.460;2023-09-08T05:47:42;99299.28;;;13.25;73.66
58295;BME280;45705;55.592;37.460;2023-09-08T05:50:09;99298.34;;;13.04;74.38
58295;BME280;45705;55.592;37.460;2023-09-08T05:52:35;99297.38;;;12.82;75.01
58295;BME280;45705;55.592;37.460;2023-09-08T05:55:01;99292.53;;;12.96;75.78
58295;BME280;45705;55.592;37.460;2023-09-08T05:57:30;99281.13;;;13.29;74.00
58295;BME280;45705;55.592;37.460;2023-09-08T05:59:56;99279.88;;;13.00;75.17
58295;BME280;45705;55.592;37.460;2023-09-08T06:02:22;99276.06;;;13.84;70.54
58295;BME280;45705;55.592;37.460;2023-09-08T06:04:48;99277.72;;;14.44;66.71
58295;BME280;45705;55.592;37.460;2023-09-08T06:07:15;99285.16;;;14.73;64.76
58295;BME280;45705;55.592;37.460;2023-09-08T06:09:42;99266.31;;;14.72;62.46
58295;BME280;45705;55.592;37.460;2023-09-08T06:12:08;99255.00;;;15.82;59.81
58295;BME280;45705;55.592;37.460;2023-09-08T06:14:33;99255.13;;;16.23;56.83
58295;BME280;45705;55.592;37.460;2023-09-08T06:16:59;99256.69;;;16.73;54.88
58295;BME280;45705;55.592;37.460;2023-09-08T06:19:25;99276.38;;;16.50;54.15
58295;BME280;45705;55.592;37.460;2023-09-08T06:21:52;99260.78;;;16.79;53.10
58295;BME280;45705;55.592;37.460;2023-09-08T06:24:18;99263.16;;;16.81;52.23
58295;BME280;45705;55.592;37.460;2023-09-08T06:26:44;99249.19;;;17.26;50.85
58295;BME280;45705;55.592;37.460;2023-09-08T06:29:10;99251.72;;;17.47;50.60
58295;BME280;45705;55.592;37.460;2023-09-08T06:31:36;99247.22;;;18.35;48.21
58295;BME280;45705;55.592;37.460;2023-09-08T06:34:02;99250.47;;;18.56;46.98
58295;BME280;45705;55.592;37.460;2023-09-08T06:36:28;99239.63;;;17.96;48.33
58295;BME280;45705;55.592;37.460;2023-09-08T06:38:54;99234.22;;;17.84;48.57
58295;BME280;45705;55.592;37.460;2023-09-08T06:41:20;99242.75;;;17.06;49.25
58295;BME280;45705;55.592;37.460;2023-09-08T06:43:46;99233.38;;;17.67;48.95
58295;BME280;45705;55.592;37.460;2023-09-08T06:46:18;99233.75;;;17.82;48.14
58295;BME280;45705;55.592;37.460;2023-09-08T06:48:44;99220.03;;;17.38;49.26
58295;BME280;45705;55.592;37.460;2023-09-08T06:51:10;99231.16;;;17.13;49.62
58295;BME280;45705;55.592;37.460;2023-09-08T06:53:38;99236.59;;;16.20;52.11
58295;BME280;45705;55.592;37.460;2023-09-08T06:56:04;99232.84;;;16.00;52.96
58295;BME280;45705;55.592;37.460;2023-09-08T06:58:31;99230.44;;;15.86;52.69
58295;BME280;45705;55.592;37.460;2023-09-08T07:00:57;99233.31;;;15.56;54.03
58295;BME280;45705;55.592;37.460;2023-09-08T07:03:24;99218.91;;;15.47;54.86
58295;BME280;45705;55.592;37.460;2023-09-08T07:05:51;99226.34;;;15.13;55.81
58295;BME280;45705;55.592;37.460;2023-09-08T07:08:17;99216.88;;;15.10;56.33
58295;BME280;45705;55.592;37.460;2023-09-08T07:10:44;99212.03;;;14.95;56.19
58295;BME280;45705;55.592;37.460;2023-09-08T07:13:10;99215.13;;;15.06;56.13
58295;BME280;45705;55.592;37.460;2023-09-08T07:15:36;99206.13;;;15.39;55.59
58295;BME280;45705;55.592;37.460;2023-09-08T07:18:03;99193.41;;;14.88;57.61
58295;BME280;45705;55.592;37.460;2023-09-08T07:20:29;99187.66;;;15.48;56.29
58295;BME280;45705;55.592;37.460;2023-09-08T07:22:56;99192.41;;;14.93;57.36
58295;BME280;45705;55.592;37.460;2023-09-08T07:25:21;99175.44;;;15.12;56.84
58295;BME280;45705;55.592;37.460;2023-09-08T07:27:48;99184.97;;;15.39;56.08
58295;BME280;45705;55.592;37.460;2023-09-08T07:30:16;99189.66;;;15.97;53.52
58295;BME280;45705;55.592;37.460;2023-09-08T07:32:42;99175.31;;;17.09;50.12
58295;BME280;45705;55.592;37.460;2023-09-08T07:35:07;99171.59;;;16.61;51.47
58295;BME280;45705;55.592;37.460;2023-09-08T07:37:40;99177.75;;;16.17;52.91
58295;BME280;45705;55.592;37.460;2023-09-08T07:40:09;99166.59;;;16.50;52.04
58295;BME280;45705;55.592;37.460;2023-09-08T07:42:35;99168.72;;;16.69;51.29
58295;BME280;45705;55.592;37.460;2023-09-08T07:45:02;99168.94;;;15.62;52.77
58295;BME280;45705;55.592;37.460;2023-09-08T07:47:31;99177.78;;;15.92;53.21
58295;BME280;45705;55.592;37.460;2023-09-08T07:50:17;99161.81;;;16.35;52.58
58295;BME280;45705;55.592;37.460;2023-09-08T07:52:44;99153.66;;;16.51;51.77
58295;BME280;45705;55.592;37.460;2023-09-08T07:55:10;99156.13;;;16.28;52.42
58295;BME280;45705;55.592;37.460;2023-09-08T07:57:36;99156.13;;;16.28;52.51
58295;BME280;45705;55.592;37.460;2023-09-08T08:00:02;99144.47;;;16.19;51.67
58295;BME280;45705;55.592;37.460;2023-09-08T08:02:48;99148.38;;;16.18;52.10
58295;BME280;45705;55.592;37.460;2023-09-08T08:05:15;99135.91;;;15.46;53.03
58295;BME280;45705;55.592;37.460;2023-09-08T08:07:42;99147.25;;;15.57;53.17
58295;BME280;45705;55.592;37.460;2023-09-08T08:10:09;99135.38;;;15.53;53.39
58295;BME280;45705;55.592;37.460;2023-09-08T08:12:42;99140.84;;;15.53;53.36
58295;BME280;45705;55.592;37.460;2023-09-08T08:15:09;99133.75;;;15.40;54.19
58295;BME280;45705;55.592;37.460;2023-09-08T08:17:36;99131.22;;;15.47;53.86
58295;BME280;45705;55.592;37.460;2023-09-08T08:20:04;99120.19;;;14.98;55.16
58295;BME280;45705;55.592;37.460;2023-09-08T08:22:36;99125.16;;;15.29;54.99
58295;BME280;45705;55.592;37.460;2023-09-08T08:25:03;99115.25;;;15.36;55.17
58295;BME280;45705;55.592;37.460;2023-09-08T08:27:33;99102.78;;;15.14;55.24
58295;BME280;45705;55.592;37.460;2023-09-08T08:30:00;99113.66;;;15.60;53.51
58295;BME280;45705;55.592;37.460;2023-09-08T08:32:43;99096.06;;;15.49;53.75
58295;BME280;45705;55.592;37.460;2023-09-08T08:35:09;99106.09;;;15.20;54.98
58295;BME280;45705;55.592;37.460;2023-09-08T08:37:36;99091.03;;;15.39;54.96
58295;BME280;45705;55.592;37.460;2023-09-08T08:40:02;99083.19;;;15.49;54.66
58295;BME280;45705;55.592;37.460;2023-09-08T08:42:32;99081.78;;;15.19;55.82
58295;BME280;45705;55.592;37.460;2023-09-08T08:44:59;99067.19;;;15.51;54.60
58295;BME280;45705;55.592;37.460;2023-09-08T08:47:27;99067.63;;;15.66;54.62
58295;BME280;45705;55.592;37.460;2023-09-08T08:49:55;99068.44;;;15.66;54.36
58295;BME280;45705;55.592;37.460;2023-09-08T08:52:21;99059.53;;;15.45;55.12
58295;BME280;45705;55.592;37.460;2023-09-08T08:54:47;99065.25;;;15.27;54.73
58295;BME280;45705;55.592;37.460;2023-09-08T08:57:13;99063.63;;;15.02;56.00
58295;BME280;45705;55.592;37.460;2023-09-08T08:59:40;99066.72;;;15.12;56.04
58295;BME280;45705;55.592;37.460;2023-09-08T09:02:08;99056.47;;;14.64;57.88
58295;BME280;45705;55.592;37.460;2023-09-08T09:04:37;99054.44;;;14.73;58.88
58295;BME280;45705;55.592;37.460;2023-09-08T09:07:04;99052.41;;;14.82;58.82
58295;BME280;45705;55.592;37.460;2023-09-08T09:09:31;99061.56;;;14.99;58.94
58295;BME280;45705;55.592;37.460;2023-09-08T09:11:57;99055.44;;;15.26;58.42
58295;BME280;45705;55.592;37.460;2023-09-08T09:14:23;99052.44;;;15.31;57.92
58295;BME280;45705;55.592;37.460;2023-09-08T09:16:49;99044.94;;;15.28;58.54
58295;BME280;45705;55.592;37.460;2023-09-08T09:19:20;99045.50;;;15.09;59.88
58295;BME280;45705;55.592;37.460;2023-09-08T09:21:51;99045.16;;;14.99;60.50
58295;BME280;45705;55.592;37.460;2023-09-08T09:24:30;99045.44;;;14.85;61.33
58295;BME280;45705;55.592;37.460;2023-09-08T09:26:57;99049.47;;;15.12;60.82
58295;BME280;45705;55.592;37.460;2023-09-08T09:29:23;99049.25;;;15.05;61.50
58295;BME280;45705;55.592;37.460;2023-09-08T09:31:57;99054.81;;;14.84;63.24
58295;BME280;45705;55.592;37.460;2023-09-08T09:34:23;99043.41;;;14.94;63.36
58295;BME280;45705;55.592;37.460;2023-09-08T09:36:50;99049.06;;;15.22;62.76
58295;BME280;45705;55.592;37.460;2023-09-08T09:39:20;99039.47;;;15.16;63.49
58295;BME280;45705;55.592;37.460;2023-09-08T09:41:49;99043.09;;;15.32;63.27
58295;BME280;45705;55.592;37.460;2023-09-08T09:44:18;99038.78;;;15.44;63.05
58295;BME280;45705;55.592;37.460;2023-09-08T09:46:47;99030.16;;;15.70;61.48
58295;BME280;45705;55.592;37.460;2023-09-08T09:49:14;99023.22;;;15.85;61.60
58295;BME280;45705;55.592;37.460;2023-09-08T09:51:43;99017.38;;;15.86;59.81
58295;BME280;45705;55.592;37.460;2023-09-08T09:54:09;99019.13;;;15.79;60.50
58295;BME280;45705;55.592;37.460;2023-09-08T09:56:38;99016.25;;;15.75;60.71
58295;BME280;45705;55.592;37.460;2023-09-08T09:59:04;99019.34;;;15.73;61.25
58295;BME280;45705;55.592;37.460;2023-09-08T10:01:31;99027.56;;;15.49;64.03
58295;BME280;45705;55.592;37.460;2023-09-08T10:03:58;99011.91;;;15.62;63.27
58295;BME280;45705;55.592;37.460;2023-09-08T10:06:25;99014.78;;;15.53;63.63
58295;BME280;45705;55.592;37.460;2023-09-08T10:08:51;99018.09;;;15.22;64.88
58295;BME280;45705;55.592;37.460;2023-09-08T10:11:21;99027.09;;;15.47;64.35
58295;BME280;45705;55.592;37.460;2023-09-08T10:13:50;99015.59;;;15.53;63.39
58295;BME280;45705;55.592;37.460;2023-09-08T10:16:19;99015.69;;;15.57;63.32
58295;BME280;45705;55.592;37.460;2023-09-08T10:18:46;99028.50;;;15.28;64.19
58295;BME280;45705;55.592;37.460;2023-09-08T10:21:13;99022.22;;;15.15;64.66
58295;BME280;45705;55.592;37.460;2023-09-08T10:23:41;99015.16;;;15.14;65.20
58295;BME280;45705;55.592;37.460;2023-09-08T10:26:11;99015.59;;;15.04;65.62
58295;BME280;45705;55.592;37.460;2023-09-08T10:28:38;99015.91;;;14.78;66.63
58295;BME280;45705;55.592;37.460;2023-09-08T10:31:05;99020.69;;;14.69;67.66
58295;BME280;45705;55.592;37.460;2023-09-08T10:33:32;99004.50;;;14.88;68.34
58295;BME280;45705;55.592;37.460;2023-09-08T10:35:59;99013.06;;;14.53;71.28
58295;BME280;45705;55.592;37.460;2023-09-08T10:38:31;99008.47;;;14.33;72.35
58295;BME280;45705;55.592;37.460;2023-09-08T10:43:54;99008.34;;;14.63;72.61
58295;BME280;45705;55.592;37.460;2023-09-08T10:46:28;98990.03;;;14.42;70.66
58295;BME280;45705;55.592;37.460;2023-09-08T10:49:04;99006.97;;;14.56;68.41
58295;BME280;45705;55.592;37.460;2023-09-08T10:51:30;99005.66;;;14.87;66.72
58295;BME280;45705;55.592;37.460;2023-09-08T10:53:56;99020.97;;;15.01;66.58
58295;BME280;45705;55.592;37.460;2023-09-08T10:56:31;99014.78;;;15.04;65.63
58295;BME280;45705;55.592;37.460;2023-09-08T10:59:13;99007.16;;;14.97;65.59
58295;BME280;45705;55.592;37.460;2023-09-08T11:01:38;99016.38;;;14.92;65.47
58295;BME280;45705;55.592;37.460;2023-09-08T11:04:05;99014.75;;;14.79;65.80
58295;BME280;45705;55.592;37.460;2023-09-08T11:06:34;99006.78;;;14.74;65.04
58295;BME280;45705;55.592;37.460;2023-09-08T11:09:06;99017.63;;;14.49;64.63
58295;BME280;45705;55.592;37.460;2023-09-08T11:11:33;99023.28;;;14.32;65.62
58295;BME280;45705;55.592;37.460;2023-09-08T11:13:59;99021.00;;;14.34;66.90
58295;BME280;45705;55.592;37.460;2023-09-08T11:16:25;99017.66;;;14.28;68.57
58295;BME280;45705;55.592;37.460;2023-09-08T11:18:55;99009.56;;;14.20;68.70
58295;BME280;45705;55.592;37.460;2023-09-08T11:21:20;99025.38;;;14.47;67.63
58295;BME280;45705;55.592;37.460;2023-09-08T11:23:46;99020.00;;;14.72;66.90
58295;BME280;45705;55.592;37.460;2023-09-08T11:26:13;99019.81;;;14.89;65.60
58295;BME280;45705;55.592;37.460;2023-09-08T11:28:41;99019.59;;;15.07;63.98
58295;BME280;45705;55.592;37.460;2023-09-08T11:31:07;99013.09;;;15.11;63.48
58295;BME280;45705;55.592;37.460;2023-09-08T11:33:34;99005.69;;;15.24;62.75
58295;BME280;45705;55.592;37.460;2023-09-08T11:36:11;99003.16;;;15.44;62.04
58295;BME280;45705;55.592;37.460;2023-09-08T11:38:37;99006.22;;;15.54;61.42
58295;BME280;45705;55.592;37.460;2023-09-08T11:41:03;99003.16;;;15.31;62.82
58295;BME280;45705;55.592;37.460;2023-09-08T11:43:29;99009.56;;;15.35;62.60
58295;BME280;45705;55.592;37.460;2023-09-08T11:45:58;99006.59;;;14.91;62.56
58295;BME280;45705;55.592;37.460;2023-09-08T11:48:25;99026.41;;;14.88;60.98
58295;BME280;45705;55.592;37.460;2023-09-08T11:50:53;99009.47;;;14.62;61.26
58295;BME280;45705;55.592;37.460;2023-09-08T11:53:20;99015.56;;;14.80;60.78
58295;BME280;45705;55.592;37.460;2023-09-08T11:55:46;99022.31;;;14.94;61.37
58295;BME280;45705;55.592;37.460;2023-09-08T11:58:13;99029.72;;;14.82;63.58
58295;BME280;45705;55.592;37.460;2023-09-08T12:00:40;99014.75;;;14.79;64.92
58295;BME280;45705;55.592;37.460;2023-09-08T12:03:13;99032.31;;;14.66;65.53
58295;BME280;45705;55.592;37.460;2023-09-08T12:05:41;99035.91;;;14.57;66.70
58295;BME280;45705;55.592;37.460;2023-09-08T12:08:07;99028.25;;;14.17;73.57
58295;BME280;45705;55.592;37.460;2023-09-08T12:10:40;99035.84;;;13.91;77.13
58295;BME280;45705;55.592;37.460;2023-09-08T12:13:07;99042.66;;;13.85;79.03
58295;BME280;45705;55.592;37.460;2023-09-08T12:15:40;99037.69;;;13.99;78.60
58295;BME280;45705;55.592;37.460;2023-09-08T12:18:07;99032.69;;;14.01;80.08
58295;BME280;45705;55.592;37.460;2023-09-08T12:20:35;99031.72;;;13.85;78.03
58295;BME280;45705;55.592;37.460;2023-09-08T12:23:05;99038.13;;;13.89;79.11
58295;BME280;45705;55.592;37.460;2023-09-08T12:25:33;99030.22;;;13.66;80.62
58295;BME280;45705;55.592;37.460;2023-09-08T12:28:00;99043.31;;;13.82;80.60
58295;BME280;45705;55.592;37.460;2023-09-08T12:30:28;99037.19;;;13.85;79.98
58295;BME280;45705;55.592;37.460;2023-09-08T12:33:00;99037.44;;;13.92;79.34
58295;BME280;45705;55.592;37.460;2023-09-08T12:35:26;99016.38;;;14.13;77.18
58295;BME280;45705;55.592;37.460;2023-09-08T12:38:01;99022.91;;;14.00;76.75
58295;BME280;45705;55.592;37.460;2023-09-08T12:40:30;99026.44;;;14.22;75.79
58295;BME280;45705;55.592;37.460;2023-09-08T12:42:56;99019.91;;;14.47;72.55
58295;BME280;45705;55.592;37.460;2023-09-08T12:45:25;99001.06;;;14.00;71.38
58295;BME280;45705;55.592;37.460;2023-09-08T12:47:51;99020.88;;;14.09;70.84
58295;BME280;45705;55.592;37.460;2023-09-08T12:50:18;99017.66;;;14.28;69.81
58295;BME280;45705;55.592;37.460;2023-09-08T12:52:44;99025.28;;;14.23;70.32
58295;BME280;45705;55.592;37.460;2023-09-08T12:55:10;99024.13;;;13.90;69.74
58295;BME280;45705;55.592;37.460;2023-09-08T12:57:36;99018.09;;;13.76;68.74
58295;BME280;45705;55.592;37.460;2023-09-08T13:00:03;99027.78;;;13.94;68.31
58295;BME280;45705;55.592;37.460;2023-09-08T13:02:34;99039.63;;;13.77;70.93